KFLO/FLO METAR and TAF weather

Enter ICAO airport designator
Station Type Date Time Source
KFLO METAR 2019/08/25 02:53 UTC NOAA

KFLO 250253Z AUTO 02011KT 9SM OVC006 21/19 A3011 RMK AO2 SLP193 T02110194 51014


Station Type Date Time Source
KFLO Decoded METAR 2019/08/25 02:53 UTC NOAA

Station name not available
Aug 24, 2019 - 10:53 PM EDT / 2019.08.25 0253 UTC
Wind: from the NNE (020 degrees) at 13 MPH (11 KT):0
Visibility: 9 mile(s):0
Sky conditions: overcast
Temperature: 70.0 F (21.1 C)
Dew Point: 66.9 F (19.4 C)
Relative Humidity: 90%
Pressure (altimeter): 30.11 in. Hg (1019 hPa)
Pressure tendency: 0.04 inches (1.4 hPa) higher than three hours ago
ob: KFLO 250253Z AUTO 02011KT 9SM OVC006 21/19 A3011 RMK AO2 SLP193 T02110194 51014
cycle: 3

Station Type Date Time Source
KFLO TAF 2019/08/25 03:16 UTC NOAA

TAF
AMD KFLO 250314Z 2503/2524 02011KT P6SM OVC006
FM251100 04007KT P6SM BKN009
FM251500 04010KT P6SM BKN025

Example: see airport list